Time;durP1;ratioP1;P1;durP2;ratioP2;P2;SDS_P1;SDS_P2;PMS_P1;PMS_P2;Temp;Humidity;BMP_temperature;BMP_pressure;BME280_temperature;BME280_humidity;BME280_pressure;Samples;Min_cycle;Max_cycle;Signal;HPM_P1;HPM_P2
2021/01/28 00:00:00;;;;;;;14.18;8.65;;;1.40;99.90;;;;;;4752091;30;20401;-79
2021/01/28 00:02:32;;;;;;;11.77;8.40;;;1.40;99.90;;;;;;4752157;30;20055;-78
2021/01/28 00:04:58;;;;;;;13.95;8.85;;;1.40;99.90;;;;;;4752018;30;20539;-78
2021/01/28 00:07:29;;;;;;;12.65;8.15;;;1.40;99.90;;;;;;4737949;30;20117;-79
2021/01/28 00:10:01;;;;;;;13.13;8.30;;;1.40;99.90;;;;;;4751524;30;20424;-79
2021/01/28 00:12:32;;;;;;;12.70;8.43;;;1.50;99.90;;;;;;4738145;30;20186;-79
2021/01/28 00:15:05;;;;;;;12.57;8.57;;;1.50;99.90;;;;;;4751929;30;20044;-79
2021/01/28 00:17:32;;;;;;;12.20;8.27;;;1.50;99.90;;;;;;4737298;30;20105;-79
2021/01/28 00:20:28;;;;;;;14.73;9.05;;;1.50;99.90;;;;;;4751758;30;20072;-79
2021/01/28 00:23:00;;;;;;;13.30;8.82;;;1.40;99.90;;;;;;4752070;30;20059;-79
2021/01/28 00:25:27;;;;;;;13.00;8.60;;;1.40;99.90;;;;;;4752049;30;20060;-79
2021/01/28 00:27:58;;;;;;;13.80;8.55;;;1.40;99.90;;;;;;4753946;30;20941;-79
2021/01/28 00:30:29;;;;;;;12.27;8.43;;;1.40;99.90;;;;;;4741708;30;20052;-78
2021/01/28 00:32:57;;;;;;;11.27;7.97;;;1.50;99.90;;;;;;4761425;30;20048;-80
2021/01/28 00:35:36;;;;;;;11.75;8.32;;;1.40;99.90;;;;;;4767064;30;20081;-80
2021/01/28 00:38:06;;;;;;;12.85;8.27;;;1.40;99.90;;;;;;4765033;30;20089;-80
2021/01/28 00:40:38;;;;;;;13.30;8.20;;;1.40;99.90;;;;;;4754353;30;20109;-80
2021/01/28 00:43:09;;;;;;;11.82;7.75;;;1.40;99.90;;;;;;4771028;30;20119;-80
2021/01/28 00:45:51;;;;;;;11.75;8.20;;;1.50;99.90;;;;;;4745237;30;20046;-80
2021/01/28 00:48:26;;;;;;;13.32;8.65;;;1.50;99.90;;;;;;4751902;30;20051;-80
2021/01/28 00:51:00;;;;;;;12.82;8.80;;;1.50;99.90;;;;;;4753766;30;20052;-80
2021/01/28 00:53:26;;;;;;;11.13;7.90;;;1.50;99.90;;;;;;4755277;30;20055;-79
2021/01/28 00:55:54;;;;;;;12.48;8.07;;;1.50;99.90;;;;;;4740976;30;20536;-79
2021/01/28 00:58:36;;;;;;;11.90;7.82;;;1.40;99.90;;;;;;4756251;30;20075;-80
2021/01/28 01:01:04;;;;;;;12.15;8.27;;;1.40;99.90;;;;;;4743251;30;20052;-80
2021/01/28 01:03:30;;;;;;;10.68;7.53;;;1.40;99.90;;;;;;4759564;30;20048;-80
2021/01/28 01:05:57;;;;;;;11.93;7.65;;;1.40;99.90;;;;;;4744165;30;20058;-80
2021/01/28 01:08:28;;;;;;;11.57;7.53;;;1.50;99.90;;;;;;4759440;30;20082;-79
2021/01/28 01:11:07;;;;;;;10.88;7.38;;;1.50;99.90;;;;;;4759742;30;20048;-78
2021/01/28 01:13:36;;;;;;;11.57;7.53;;;1.50;99.90;;;;;;4758822;30;20052;-80
2021/01/28 01:16:19;;;;;;;10.15;7.35;;;1.40;99.90;;;;;;4762292;30;20059;-79
2021/01/28 01:18:51;;;;;;;10.40;6.70;;;1.40;99.90;;;;;;4762841;30;20528;-80
2021/01/28 01:21:27;;;;;;;9.40;6.40;;;1.40;99.90;;;;;;4762502;30;20124;-80
2021/01/28 01:24:11;;;;;;;10.05;6.93;;;1.40;99.90;;;;;;4761187;30;20055;-80
2021/01/28 01:26:42;;;;;;;9.90;7.05;;;1.50;99.90;;;;;;4758813;30;20051;-80
2021/01/28 01:29:09;;;;;;;9.10;6.13;;;1.50;99.90;;;;;;4757722;30;20051;-80
2021/01/28 01:32:02;;;;;;;9.30;5.95;;;1.50;99.90;;;;;;4761150;30;20048;-80
2021/01/28 01:34:36;;;;;;;9.38;6.20;;;1.50;99.90;;;;;;4764381;30;20048;-78
2021/01/28 01:37:09;;;;;;;8.95;6.57;;;1.50;99.90;;;;;;4782098;30;20062;-79
2021/01/28 01:39:39;;;;;;;9.32;6.70;;;1.50;99.90;;;;;;4764734;30;20052;-78
2021/01/28 01:42:10;;;;;;;9.07;6.38;;;1.40;99.90;;;;;;4778192;30;20118;-79
2021/01/28 01:44:39;;;;;;;10.52;7.38;;;1.40;99.90;;;;;;4762293;30;20051;-80
2021/01/28 01:47:43;;;;;;;12.60;7.80;;;1.40;99.90;;;;;;4762286;30;20051;-78
2021/01/28 01:50:37;;;;;;;9.80;6.35;;;1.50;99.90;;;;;;4759804;30;20058;-80
2021/01/28 01:53:10;;;;;;;10.02;6.80;;;1.40;99.90;;;;;;4759204;30;20048;-80
2021/01/28 01:55:57;;;;;;;9.63;7.15;;;1.40;99.90;;;;;;4758774;30;20052;-80
2021/01/28 01:58:39;;;;;;;8.93;6.00;;;1.40;99.90;;;;;;4756322;30;20097;-79
2021/01/28 02:01:27;;;;;;;8.40;5.70;;;1.50;99.90;;;;;;4759663;30;20055;-78
2021/01/28 02:04:27;;;;;;;9.27;6.55;;;1.50;99.90;;;;;;4750843;30;20087;-80
2021/01/28 02:07:25;;;;;;;9.88;6.78;;;1.50;99.90;;;;;;4771481;30;20052;-79
2021/01/28 02:10:13;;;;;;;10.32;6.53;;;1.50;99.90;;;;;;4757887;30;20055;-80
2021/01/28 02:13:01;;;;;;;10.50;6.60;;;1.50;99.90;;;;;;4766803;30;20048;-79
2021/01/28 02:15:40;;;;;;;9.15;5.88;;;1.50;99.90;;;;;;4752030;30;20458;-79
2021/01/28 02:18:11;;;;;;;8.85;6.07;;;1.50;99.90;;;;;;4753815;30;20051;-80
2021/01/28 02:21:26;;;;;;;8.52;5.72;;;1.50;99.90;;;;;;4751225;30;20055;-80
2021/01/28 02:24:17;;;;;;;8.20;6.13;;;1.60;99.90;;;;;;4756971;30;20127;-80
2021/01/28 02:26:51;;;;;;;10.82;6.63;;;1.50;99.90;;;;;;4754837;30;20066;-79
2021/01/28 02:29:54;;;;;;;8.48;5.63;;;1.50;99.90;;;;;;4755263;30;20087;-79
2021/01/28 02:32:21;;;;;;;10.18;6.78;;;1.60;99.90;;;;;;4740382;30;20101;-80
2021/01/28 02:35:10;;;;;;;9.38;6.30;;;1.50;99.90;;;;;;4769624;30;20059;-79
2021/01/28 02:37:41;;;;;;;13.88;7.70;;;1.50;99.90;;;;;;4754884;30;20508;-79
2021/01/28 02:40:30;;;;;;;10.07;6.78;;;1.50;99.90;;;;;;4754766;30;20144;-79
2021/01/28 02:43:22;;;;;;;8.95;6.18;;;1.50;99.90;;;;;;4754778;30;20059;-79
2021/01/28 02:46:11;;;;;;;9.73;6.32;;;1.50;99.90;;;;;;4769886;30;20175;-80
2021/01/28 02:48:57;;;;;;;12.05;7.18;;;1.50;99.90;;;;;;4756760;30;20071;-79
2021/01/28 02:51:34;;;;;;;10.10;6.40;;;1.50;99.90;;;;;;4755826;30;20377;-80
2021/01/28 02:54:12;;;;;;;11.18;6.40;;;1.50;99.90;;;;;;4759157;30;20523;-79
2021/01/28 02:56:43;;;;;;;10.30;6.80;;;1.60;99.90;;;;;;4754474;30;20048;-80
2021/01/28 02:59:11;;;;;;;12.50;7.50;;;1.60;99.90;;;;;;4754168;30;20062;-79
2021/01/28 03:01:45;;;;;;;14.20;8.45;;;1.60;99.90;;;;;;4754365;30;20047;-80
2021/01/28 03:04:19;;;;;;;;;;;1.60;99.90;;;;;;4754744;30;20052;-80
2021/01/28 03:06:56;;;;;;;10.27;6.65;;;1.60;99.90;;;;;;4754286;30;19925;-80
2021/01/28 03:09:27;;;;;;;13.25;7.55;;;1.60;99.90;;;;;;4753796;30;20052;-79
2021/01/28 03:12:12;;;;;;;12.63;7.57;;;1.60;99.90;;;;;;4769537;30;20535;-79
2021/01/28 03:15:07;;;;;;;11.27;7.50;;;1.60;99.90;;;;;;4756838;30;20063;-79
2021/01/28 03:17:43;;;;;;;15.35;8.80;;;1.60;99.90;;;;;;4753884;30;20044;-79
2021/01/28 03:20:15;;;;;;;10.25;7.03;;;1.60;99.90;;;;;;4753851;30;20052;-80
2021/01/28 03:22:46;;;;;;;11.77;7.35;;;1.60;99.90;;;;;;4753927;30;20139;-80
2021/01/28 03:25:41;;;;;;;14.80;8.95;;;1.60;99.90;;;;;;4750490;30;20083;-79
2021/01/28 03:28:13;;;;;;;14.80;8.40;;;1.60;99.90;;;;;;4753686;30;20052;-79
2021/01/28 03:30:50;;;;;;;15.70;8.48;;;1.60;99.90;;;;;;4753147;30;20048;-78
2021/01/28 03:33:21;;;;;;;15.40;8.20;;;1.60;99.90;;;;;;4753269;30;20048;-79
2021/01/28 03:35:53;;;;;;;15.70;9.00;;;1.60;99.90;;;;;;4753796;30;20162;-79
2021/01/28 03:38:25;;;;;;;14.52;8.55;;;1.60;99.90;;;;;;4752839;30;20043;-78
2021/01/28 03:40:57;;;;;;;14.80;8.75;;;1.60;99.90;;;;;;4752982;30;20512;-79
2021/01/28 03:43:29;;;;;;;14.43;7.70;;;1.60;99.90;;;;;;4753035;30;20427;-79
2021/01/28 03:46:01;;;;;;;13.50;8.40;;;1.70;99.90;;;;;;4753899;30;20074;-79
2021/01/28 03:48:43;;;;;;;18.70;10.55;;;1.70;99.90;;;;;;4752703;30;20048;-80
2021/01/28 03:51:28;;;;;;;16.25;9.25;;;1.70;99.90;;;;;;4740675;30;20055;-79
2021/01/28 03:54:18;;;;;;;17.77;10.18;;;1.70;99.90;;;;;;4769068;30;20093;-79
2021/01/28 03:57:00;;;;;;;15.85;9.25;;;1.70;99.90;;;;;;4752918;30;20135;-80
2021/01/28 03:59:27;;;;;;;17.58;11.10;;;1.70;99.90;;;;;;4752572;30;20059;-79
2021/01/28 04:02:08;;;;;;;15.40;8.60;;;1.70;99.90;;;;;;4739978;30;20139;-80
2021/01/28 04:04:53;;;;;;;15.30;9.20;;;1.70;99.90;;;;;;4768007;30;20054;-79
2021/01/28 04:07:47;;;;;;;16.55;9.95;;;1.70;99.90;;;;;;4768716;30;20051;-80
2021/01/28 04:10:27;;;;;;;15.48;8.35;;;1.80;99.90;;;;;;4752831;30;20054;-79
2021/01/28 04:13:00;;;;;;;16.65;10.10;;;1.80;99.90;;;;;;4753061;30;20067;-79
2021/01/28 04:15:37;;;;;;;17.05;9.57;;;1.70;99.90;;;;;;4752256;30;20058;-79
2021/01/28 04:18:09;;;;;;;16.50;9.30;;;1.80;99.90;;;;;;4753004;30;20052;-79
2021/01/28 04:20:45;;;;;;;17.15;8.00;;;1.80;99.90;;;;;;4767406;30;20047;-80
2021/01/28 04:23:17;;;;;;;15.07;9.00;;;1.80;99.90;;;;;;4752294;30;20047;-79
2021/01/28 04:26:15;;;;;;;15.93;9.68;;;1.80;99.90;;;;;;4752382;30;20051;-78
2021/01/28 04:28:52;;;;;;;14.52;8.13;;;1.80;99.90;;;;;;4752160;30;20566;-80
2021/01/28 04:31:46;;;;;;;14.93;8.15;;;1.80;99.90;;;;;;4758028;30;20533;-78
2021/01/28 04:34:24;;;;;;;15.35;8.10;;;1.80;99.90;;;;;;4738939;30;20108;-78
2021/01/28 04:37:00;;;;;;;17.27;8.30;;;1.80;99.90;;;;;;4752289;30;20047;-78
2021/01/28 04:39:54;;;;;;;16.90;8.82;;;1.80;99.90;;;;;;4755659;30;20136;-78
2021/01/28 04:42:47;;;;;;;17.90;9.27;;;1.80;99.90;;;;;;4751332;30;20052;-78
2021/01/28 04:45:28;;;;;;;18.73;10.88;;;1.80;99.90;;;;;;4752226;30;20071;-78
2021/01/28 04:48:03;;;;;;;17.40;9.95;;;1.80;99.90;;;;;;4752162;30;20048;-78
2021/01/28 04:50:56;;;;;;;16.77;9.10;;;1.80;99.90;;;;;;4768038;30;20059;-78
2021/01/28 04:53:49;;;;;;;16.58;9.13;;;1.80;99.90;;;;;;4751717;30;20055;-78
2021/01/28 04:56:35;;;;;;;16.80;8.82;;;1.70;99.90;;;;;;4753268;30;20051;-79
2021/01/28 04:59:35;;;;;;;17.90;9.88;;;1.70;99.90;;;;;;4751205;30;20734;-78
2021/01/28 05:02:10;;;;;;;16.33;9.23;;;1.80;99.90;;;;;;4752053;30;20069;-78
2021/01/28 05:04:58;;;;;;;15.77;9.10;;;1.80;99.90;;;;;;4751849;30;20059;-78
2021/01/28 05:07:55;;;;;;;14.13;8.10;;;1.80;99.90;;;;;;4739909;30;20550;-78
2021/01/28 05:10:55;;;;;;;15.43;8.65;;;1.80;99.90;;;;;;4767456;30;20078;-78
2021/01/28 05:13:45;;;;;;;13.52;8.20;;;1.80;99.90;;;;;;4755268;30;20066;-78
2021/01/28 05:16:43;;;;;;;13.57;7.47;;;1.80;99.90;;;;;;4754989;30;20524;-78
2021/01/28 05:19:50;;;;;;;12.10;6.95;;;1.80;99.90;;;;;;4736435;30;20121;-78
2021/01/28 05:22:33;;;;;;;11.30;6.40;;;1.90;99.90;;;;;;4767749;30;20113;-79
2021/01/28 05:25:35;;;;;;;11.35;6.50;;;1.90;99.90;;;;;;4766371;30;20058;-78
2021/01/28 05:28:30;;;;;;;9.98;5.47;;;1.90;99.90;;;;;;4751360;30;20086;-78
2021/01/28 05:31:33;;;;;;;8.93;5.10;;;1.90;99.90;;;;;;4736817;30;20062;-78
2021/01/28 05:34:31;;;;;;;9.65;5.47;;;1.90;99.90;;;;;;4766467;30;20419;-78
2021/01/28 05:37:07;;;;;;;8.85;5.20;;;2.00;99.90;;;;;;4752460;30;20109;-78
2021/01/28 05:40:26;;;;;;;6.10;3.78;;;2.00;99.90;;;;;;4767110;30;20113;-78
2021/01/28 05:43:33;;;;;;;7.03;4.15;;;2.00;99.90;;;;;;4751206;30;20411;-78
2021/01/28 05:46:14;;;;;;;7.47;4.75;;;2.00;99.90;;;;;;4751495;30;20051;-78
2021/01/28 05:49:19;;;;;;;8.15;4.97;;;2.00;99.90;;;;;;4754376;30;20048;-78
2021/01/28 05:51:52;;;;;;;8.15;5.03;;;1.90;99.90;;;;;;4767586;30;20059;-78
2021/01/28 05:54:43;;;;;;;7.57;5.05;;;1.90;99.90;;;;;;4754881;30;20079;-78
2021/01/28 05:57:36;;;;;;;7.57;4.28;;;1.90;99.90;;;;;;4754920;30;20056;-78
2021/01/28 06:00:16;;;;;;;7.57;4.60;;;1.80;99.90;;;;;;4754856;30;20416;-78
2021/01/28 06:03:27;;;;;;;7.80;4.43;;;1.80;99.90;;;;;;4756408;30;20051;-78
2021/01/28 06:07:04;;;;;;;5.57;3.55;;;1.90;99.90;;;;;;4715751;30;20165;-78
2021/01/28 06:10:44;;;;;;;7.15;4.75;;;1.90;99.90;;;;;;4756679;30;20531;-78
2021/01/28 06:14:00;;;;;;;5.40;3.72;;;1.90;99.90;;;;;;4664967;30;20140;-78
2021/01/28 06:17:08;;;;;;;4.80;3.30;;;1.90;99.90;;;;;;4742350;30;20044;-78
2021/01/28 06:20:23;;;;;;;4.63;2.75;;;2.00;99.90;;;;;;4745218;30;20059;-78
2021/01/28 06:23:24;;;;;;;4.93;3.13;;;1.90;99.90;;;;;;4755477;30;20135;-79
2021/01/28 06:26:36;;;;;;;3.47;2.33;;;2.00;99.90;;;;;;4747206;30;20159;-78
2021/01/28 06:29:52;;;;;;;3.10;2.15;;;2.00;99.90;;;;;;4754443;30;20079;-78
2021/01/28 06:32:48;;;;;;;3.83;2.42;;;2.00;99.90;;;;;;4704827;30;20044;-78
2021/01/28 06:35:54;;;;;;;4.35;2.97;;;2.10;99.90;;;;;;4733315;30;20075;-78
2021/01/28 06:39:07;;;;;;;3.58;2.40;;;2.10;99.90;;;;;;4741119;30;20052;-78
2021/01/28 06:42:21;;;;;;;4.18;2.63;;;2.10;99.90;;;;;;4771058;30;20063;-78
2021/01/28 06:45:12;;;;;;;4.30;2.75;;;2.00;99.90;;;;;;4721038;30;20412;-78
2021/01/28 06:48:16;;;;;;;6.18;4.28;;;2.10;99.90;;;;;;4765804;30;20074;-78
2021/01/28 06:51:29;;;;;;;4.80;3.38;;;2.10;99.90;;;;;;4755789;30;20050;-78
2021/01/28 06:54:36;;;;;;;6.32;4.40;;;2.10;99.90;;;;;;4753185;30;20062;-78
2021/01/28 06:57:45;;;;;;;5.45;3.65;;;2.10;99.90;;;;;;4738369;30;20105;-78
2021/01/28 07:00:38;;;;;;;4.82;2.72;;;2.20;99.90;;;;;;4754189;30;20147;-78
2021/01/28 07:03:39;;;;;;;3.60;2.90;;;2.20;99.90;;;;;;4739319;30;20043;-78
2021/01/28 07:06:48;;;;;;;8.45;6.63;;;2.30;99.90;;;;;;4756991;30;20048;-78
2021/01/28 07:09:43;;;;;;;3.70;3.03;;;2.30;99.90;;;;;;4741322;30;20146;-78
2021/01/28 07:12:19;;;;;;;6.40;2.65;;;2.30;99.90;;;;;;4751022;30;20047;-78
2021/01/28 07:15:20;;;;;;;4.47;2.90;;;2.30;99.90;;;;;;4747927;30;20158;-78
2021/01/28 07:18:24;;;;;;;4.40;3.33;;;2.30;99.90;;;;;;4755335;30;20063;-78
2021/01/28 07:21:10;;;;;;;3.75;2.38;;;2.50;99.90;;;;;;4739359;30;20424;-78
2021/01/28 07:23:58;;;;;;;3.67;2.75;;;2.50;99.90;;;;;;4743221;30;20093;-78
2021/01/28 07:26:55;;;;;;;4.30;2.80;;;2.50;99.90;;;;;;4751072;30;20123;-78
2021/01/28 07:29:27;;;;;;;3.53;2.85;;;2.50;99.90;;;;;;4752186;30;20122;-78
2021/01/28 07:32:00;;;;;;;4.70;2.97;;;2.50;99.90;;;;;;4750888;30;20044;-78
2021/01/28 07:34:42;;;;;;;4.22;2.92;;;2.50;99.90;;;;;;4750142;30;20043;-78
2021/01/28 07:37:22;;;;;;;4.78;2.85;;;2.50;99.90;;;;;;4741391;30;20138;-78
2021/01/28 07:40:32;;;;;;;2.88;2.28;;;2.50;99.90;;;;;;4756555;30;20169;-78
2021/01/28 07:43:36;;;;;;;3.58;2.58;;;2.50;99.90;;;;;;4735732;30;20055;-79
2021/01/28 07:46:38;;;;;;;3.08;1.95;;;2.60;99.90;;;;;;4755611;30;20148;-78
2021/01/28 07:49:28;;;;;;;5.20;3.85;;;2.60;99.90;;;;;;4752315;30;20056;-78
2021/01/28 07:52:37;;;;;;;6.05;5.43;;;2.60;99.90;;;;;;4752318;30;20067;-78
2021/01/28 07:55:40;;;;;;;3.05;2.75;;;2.70;99.90;;;;;;4753299;30;20054;-78
2021/01/28 07:58:30;;;;;;;3.05;2.00;;;2.70;99.90;;;;;;4749592;30;20593;-78
2021/01/28 08:01:05;;;;;;;2.47;2.05;;;2.70;99.90;;;;;;4752583;30;20540;-78
2021/01/28 08:04:04;;;;;;;2.92;1.80;;;2.70;99.90;;;;;;4748352;30;20405;-78
2021/01/28 08:06:38;;;;;;;2.42;1.80;;;2.70;99.90;;;;;;4736227;30;20147;-78
2021/01/28 08:09:15;;;;;;;2.90;2.00;;;2.70;99.90;;;;;;4750450;30;20131;-78
2021/01/28 08:11:54;;;;;;;3.38;2.30;;;2.70;99.90;;;;;;4733566;30;20052;-78
2021/01/28 08:14:32;;;;;;;3.00;1.95;;;2.80;99.90;;;;;;4733621;30;20052;-78
2021/01/28 08:17:03;;;;;;;3.40;2.45;;;2.80;99.90;;;;;;4758186;30;20432;-78
2021/01/28 08:19:35;;;;;;;3.50;2.03;;;2.80;99.90;;;;;;4764476;30;20531;-78
2021/01/28 08:22:12;;;;;;;2.42;1.60;;;2.80;99.90;;;;;;4769356;30;20058;-78
2021/01/28 08:24:57;;;;;;;4.47;2.25;;;2.80;99.90;;;;;;4766661;30;20050;-78
2021/01/28 08:27:38;;;;;;;5.43;1.98;;;2.90;99.90;;;;;;4755454;30;20051;-78
2021/01/28 08:30:18;;;;;;;2.83;1.77;;;2.90;99.90;;;;;;4751021;30;20135;-78
2021/01/28 08:32:46;;;;;;;2.75;1.65;;;2.90;99.90;;;;;;4751227;30;20054;-79
2021/01/28 08:35:26;;;;;;;2.10;1.85;;;3.00;99.90;;;;;;4736567;30;20069;-78
2021/01/28 08:38:15;;;;;;;2.90;1.83;;;3.00;99.90;;;;;;4735860;30;20062;-78
2021/01/28 08:41:01;;;;;;;2.53;1.95;;;3.10;99.90;;;;;;4754904;30;20051;-78
2021/01/28 08:43:32;;;;;;;3.53;1.80;;;3.10;99.90;;;;;;4754100;30;20059;-78
2021/01/28 08:46:13;;;;;;;3.53;1.52;;;3.10;99.90;;;;;;4769506;30;20052;-78
2021/01/28 08:48:46;;;;;;;2.22;1.98;;;3.10;99.90;;;;;;4770322;30;20106;-78
2021/01/28 08:51:26;;;;;;;2.20;1.73;;;3.10;99.90;;;;;;4760260;30;20043;-78
2021/01/28 08:54:25;;;;;;;2.40;1.58;;;3.20;99.90;;;;;;4745865;30;20052;-78
2021/01/28 08:56:58;;;;;;;2.10;1.48;;;3.20;99.90;;;;;;4748001;30;20051;-78
2021/01/28 08:59:43;;;;;;;2.50;1.60;;;3.20;99.90;;;;;;4767503;30;20511;-78
2021/01/28 09:02:18;;;;;;;2.72;2.00;;;3.20;99.90;;;;;;4767635;30;20039;-78
2021/01/28 09:05:16;;;;;;;2.88;1.98;;;3.20;99.90;;;;;;4765736;30;20071;-78
2021/01/28 09:07:51;;;;;;;2.35;1.60;;;3.30;99.90;;;;;;4750296;30;20044;-78
2021/01/28 09:10:31;;;;;;;2.78;1.80;;;3.30;99.90;;;;;;4757159;30;20048;-78
2021/01/28 09:13:29;;;;;;;1.90;1.30;;;3.30;99.90;;;;;;4767689;30;20039;-78
2021/01/28 09:16:09;;;;;;;2.25;1.27;;;3.30;99.90;;;;;;4751093;30;20043;-78
2021/01/28 09:18:49;;;;;;;2.70;1.85;;;3.30;99.90;;;;;;4735339;30;20526;-78
2021/01/28 09:21:35;;;;;;;2.67;1.88;;;3.30;99.90;;;;;;4732249;30;20048;-78
2021/01/28 09:24:26;;;;;;;2.30;1.77;;;3.30;99.90;;;;;;4732385;30;20147;-77
2021/01/28 09:27:17;;;;;;;1.88;1.33;;;3.30;99.90;;;;;;4756711;30;20055;-78
2021/01/28 09:29:50;;;;;;;1.65;1.13;;;3.40;99.90;;;;;;4735599;30;20066;-78
2021/01/28 09:32:24;;;;;;;2.75;1.77;;;3.40;99.90;;;;;;4749945;30;20057;-78
2021/01/28 09:35:23;;;;;;;2.72;1.27;;;3.50;99.90;;;;;;4737590;30;20397;-78
2021/01/28 09:38:11;;;;;;;1.75;1.25;;;3.50;99.90;;;;;;4749569;30;20044;-77
2021/01/28 09:40:44;;;;;;;1.45;1.05;;;3.60;99.90;;;;;;4748820;30;20052;-78
2021/01/28 09:43:25;;;;;;;1.35;0.85;;;3.70;99.90;;;;;;4750823;30;20055;-78
2021/01/28 09:46:08;;;;;;;2.83;1.00;;;3.60;99.90;;;;;;4750027;30;20061;-78
2021/01/28 09:48:39;;;;;;;1.27;0.75;;;3.70;99.90;;;;;;4751444;30;20074;-78
2021/01/28 09:51:14;;;;;;;1.63;0.77;;;3.70;99.90;;;;;;4751084;30;20039;-78
2021/01/28 09:54:20;;;;;;;1.23;0.90;;;3.70;99.90;;;;;;4736777;30;20044;-78
2021/01/28 09:56:51;;;;;;;1.17;0.75;;;3.80;99.90;;;;;;4756091;30;20051;-78
2021/01/28 09:59:23;;;;;;;1.00;0.85;;;3.70;99.90;;;;;;4737126;30;20058;-78
2021/01/28 10:01:55;;;;;;;1.00;0.73;;;3.80;99.90;;;;;;4749107;30;20047;-77
2021/01/28 10:04:27;;;;;;;1.75;1.05;;;3.80;99.90;;;;;;4736612;30;20052;-77
2021/01/28 10:06:58;;;;;;;1.10;0.88;;;3.80;99.90;;;;;;4736686;30;20044;-77
2021/01/28 10:09:29;;;;;;;1.48;0.80;;;3.80;99.90;;;;;;4750702;30;20040;-77
2021/01/28 10:12:01;;;;;;;1.30;0.80;;;3.80;99.90;;;;;;4751811;30;20048;-77
2021/01/28 10:14:32;;;;;;;1.20;0.80;;;3.80;99.90;;;;;;4736334;30;20048;-77
2021/01/28 10:17:04;;;;;;;1.15;0.80;;;3.90;99.90;;;;;;4735851;30;20513;-77
2021/01/28 10:19:35;;;;;;;1.67;0.80;;;3.90;99.90;;;;;;4734197;30;20508;-77
2021/01/28 10:22:08;;;;;;;1.27;0.80;;;3.90;99.90;;;;;;4736436;30;20450;-78
2021/01/28 10:24:40;;;;;;;1.20;0.80;;;3.90;99.90;;;;;;4750947;30;20524;-77
2021/01/28 10:27:07;;;;;;;1.30;0.73;;;3.90;99.90;;;;;;4743183;30;20047;-77
2021/01/28 10:29:34;;;;;;;1.25;0.63;;;4.00;99.90;;;;;;4759237;30;20047;-77
2021/01/28 10:32:07;;;;;;;1.65;0.70;;;4.00;99.90;;;;;;4750208;30;20419;-77
2021/01/28 10:34:38;;;;;;;1.35;0.60;;;3.90;99.90;;;;;;4750948;30;20067;-77
2021/01/28 10:37:11;;;;;;;1.20;0.77;;;4.00;99.90;;;;;;4736712;30;20496;-77
2021/01/28 10:39:42;;;;;;;0.85;0.70;;;4.00;99.90;;;;;;4739021;30;20054;-77
2021/01/28 10:42:19;;;;;;;0.80;0.52;;;4.00;99.90;;;;;;4739952;30;20058;-77
2021/01/28 10:44:51;;;;;;;2.25;0.70;;;4.00;99.90;;;;;;4755184;30;20452;-78
2021/01/28 10:47:22;;;;;;;0.70;0.50;;;4.10;99.90;;;;;;4755784;30;20051;-77
2021/01/28 10:49:53;;;;;;;0.93;0.60;;;4.10;99.90;;;;;;4754563;30;20444;-77
2021/01/28 10:52:24;;;;;;;1.58;0.95;;;4.00;99.90;;;;;;4753883;30;20675;-77
2021/01/28 10:54:56;;;;;;;0.55;0.50;;;4.00;99.90;;;;;;4753652;30;21784;-77
2021/01/28 10:57:27;;;;;;;0.68;0.68;;;4.00;99.90;;;;;;4757801;30;20412;-79
2021/01/28 10:59:53;;;;;;;0.85;0.55;;;4.10;99.90;;;;;;4739426;30;20071;-79
2021/01/28 11:02:19;;;;;;;1.00;0.70;;;4.10;99.90;;;;;;4755079;30;20133;-79
2021/01/28 11:04:46;;;;;;;0.80;0.50;;;4.10;99.90;;;;;;4771895;30;20444;-80
2021/01/28 11:07:17;;;;;;;1.17;0.93;;;4.10;99.90;;;;;;4764445;30;20052;-79
2021/01/28 11:09:48;;;;;;;1.15;0.82;;;4.10;99.90;;;;;;4756352;30;20710;-79
2021/01/28 11:12:14;;;;;;;1.38;1.05;;;4.20;99.90;;;;;;4744872;30;20608;-79
2021/01/28 11:14:41;;;;;;;1.10;0.70;;;4.10;99.90;;;;;;4738391;30;20109;-79
2021/01/28 11:17:12;;;;;;;2.63;0.90;;;4.10;99.90;;;;;;4754807;30;20044;-79
2021/01/28 11:19:38;;;;;;;0.98;0.75;;;4.20;99.90;;;;;;4752782;30;20055;-79
2021/01/28 11:22:04;;;;;;;0.93;0.73;;;4.20;99.90;;;;;;4754136;30;20057;-79
2021/01/28 11:24:30;;;;;;;1.00;0.70;;;4.20;99.90;;;;;;4753910;30;20047;-79
2021/01/28 11:27:02;;;;;;;1.05;0.80;;;4.30;99.90;;;;;;4748397;30;20496;-79
2021/01/28 11:29:33;;;;;;;0.90;0.70;;;4.30;99.90;;;;;;4769222;30;20075;-79
2021/01/28 11:32:05;;;;;;;0.95;0.82;;;4.30;99.90;;;;;;4770122;30;20504;-79
2021/01/28 11:34:36;;;;;;;2.40;0.60;;;4.40;99.90;;;;;;4757593;30;20048;-80
2021/01/28 11:37:07;;;;;;;1.00;0.70;;;4.40;99.90;;;;;;4771707;30;20059;-80
2021/01/28 11:39:39;;;;;;;0.70;0.60;;;4.40;99.90;;;;;;4770861;30;20396;-79
2021/01/28 11:42:05;;;;;;;0.90;0.68;;;4.50;99.90;;;;;;4770966;30;20133;-79
2021/01/28 11:44:31;;;;;;;0.85;0.75;;;4.50;99.90;;;;;;4756266;30;20150;-80
2021/01/28 11:47:02;;;;;;;1.10;0.80;;;4.60;99.90;;;;;;4772206;30;20059;-79
2021/01/28 11:49:34;;;;;;;0.95;0.52;;;4.50;99.90;;;;;;4756780;29;20134;-79
2021/01/28 11:52:05;;;;;;;1.10;0.50;;;4.60;99.90;;;;;;4770501;30;20051;-79
2021/01/28 11:54:31;;;;;;;0.82;0.60;;;4.70;99.90;;;;;;4738266;30;20071;-80
2021/01/28 11:56:57;;;;;;;0.65;0.60;;;4.70;99.90;;;;;;4762455;30;20083;-79
2021/01/28 11:59:28;;;;;;;0.70;0.50;;;4.70;99.90;;;;;;4755902;30;20538;-80
2021/01/28 12:02:00;;;;;;;0.68;0.60;;;4.80;99.90;;;;;;4764559;30;20048;-80
2021/01/28 12:04:31;;;;;;;0.40;0.40;;;4.90;99.90;;;;;;4738377;30;20050;-80
2021/01/28 12:06:57;;;;;;;0.65;0.65;;;4.90;99.90;;;;;;4737466;30;20119;-79
2021/01/28 12:09:28;;;;;;;0.60;0.43;;;5.00;99.90;;;;;;4752969;30;20055;-78
2021/01/28 12:11:59;;;;;;;0.52;0.50;;;5.00;99.90;;;;;;4739001;30;20066;-79
2021/01/28 12:14:31;;;;;;;0.80;0.60;;;5.10;99.90;;;;;;4752453;30;20056;-79
2021/01/28 12:17:02;;;;;;;0.60;0.45;;;5.10;99.90;;;;;;4738533;30;20138;-79
2021/01/28 12:19:33;;;;;;;0.70;0.40;;;5.20;99.90;;;;;;4738020;30;20135;-80
2021/01/28 12:22:00;;;;;;;0.70;0.68;;;5.20;99.90;;;;;;4732148;30;20134;-79
2021/01/28 12:24:32;;;;;;;0.68;0.47;;;5.20;99.90;;;;;;4736843;30;20058;-79
2021/01/28 12:27:04;;;;;;;0.40;0.37;;;5.20;99.90;;;;;;4752259;30;20054;-79
2021/01/28 12:29:35;;;;;;;0.40;0.40;;;5.20;99.90;;;;;;4737189;30;20138;-79
2021/01/28 12:32:01;;;;;;;0.60;0.50;;;5.30;99.90;;;;;;4752169;30;20142;-80
2021/01/28 12:34:33;;;;;;;0.75;0.73;;;5.30;99.90;;;;;;4737563;30;20048;-79
2021/01/28 12:37:04;;;;;;;1.25;0.68;;;5.30;99.90;;;;;;4752792;30;20805;-79
2021/01/28 12:39:36;;;;;;;0.50;0.40;;;5.40;99.90;;;;;;4737486;30;20051;-79
2021/01/28 12:42:02;;;;;;;0.75;0.55;;;5.40;99.90;;;;;;4751742;30;20083;-79
2021/01/28 12:44:34;;;;;;;2.83;0.60;;;5.50;99.90;;;;;;4751626;30;20076;-79
2021/01/28 12:47:05;;;;;;;0.77;0.63;;;5.50;99.90;;;;;;4737613;30;20134;-78
2021/01/28 12:49:36;;;;;;;0.88;0.50;;;5.60;99.90;;;;;;4735289;30;20481;-79
2021/01/28 12:52:08;;;;;;;0.95;0.70;;;5.60;99.90;;;;;;4736781;30;20047;-78
2021/01/28 12:54:40;;;;;;;0.50;0.50;;;5.60;99.90;;;;;;4740897;30;20047;-78
2021/01/28 12:57:12;;;;;;;0.55;0.50;;;5.60;99.90;;;;;;4769265;30;20474;-77
2021/01/28 12:59:45;;;;;;;1.02;0.60;;;5.80;99.90;;;;;;4754279;30;20051;-77
2021/01/28 13:02:16;;;;;;;0.80;0.55;;;5.80;99.90;;;;;;4767644;30;20061;-78
2021/01/28 13:04:47;;;;;;;0.50;0.40;;;5.90;99.90;;;;;;4760525;30;20532;-78
2021/01/28 13:07:18;;;;;;;0.68;0.52;;;5.80;99.90;;;;;;4750414;30;20048;-78
2021/01/28 13:09:49;;;;;;;0.75;0.60;;;5.80;99.90;;;;;;4736449;30;20054;-77
2021/01/28 13:12:20;;;;;;;1.10;0.70;;;5.80;99.90;;;;;;4750836;30;20415;-77
2021/01/28 13:14:52;;;;;;;0.95;0.77;;;5.90;99.90;;;;;;4750375;30;20044;-77
2021/01/28 13:17:23;;;;;;;1.20;0.60;;;5.90;99.90;;;;;;4750846;30;20146;-77
2021/01/28 13:19:55;;;;;;;0.52;0.50;;;5.90;99.90;;;;;;4750380;30;20058;-78
2021/01/28 13:22:21;;;;;;;1.13;1.02;;;5.90;99.90;;;;;;4752035;30;20498;-77
2021/01/28 13:24:52;;;;;;;1.25;0.77;;;6.00;99.90;;;;;;4751606;30;20596;-78
2021/01/28 13:27:24;;;;;;;0.98;0.70;;;6.00;99.90;;;;;;4751225;30;20497;-78
2021/01/28 13:29:55;;;;;;;0.80;0.65;;;6.00;99.90;;;;;;4749868;30;20618;-77
2021/01/28 13:32:26;;;;;;;1.25;0.98;;;6.00;99.90;;;;;;4736850;30;20074;-78
2021/01/28 13:34:57;;;;;;;0.98;0.77;;;6.10;99.90;;;;;;4751571;30;20058;-77
2021/01/28 13:37:30;;;;;;;0.63;0.63;;;6.10;99.90;;;;;;4734805;30;20556;-77
2021/01/28 13:40:03;;;;;;;0.80;0.70;;;6.10;99.90;;;;;;4748023;30;20057;-78
2021/01/28 13:42:35;;;;;;;0.70;0.70;;;6.20;99.90;;;;;;4750926;30;20043;-78
2021/01/28 13:45:02;;;;;;;0.77;0.70;;;6.10;99.90;;;;;;4749147;30;20098;-79
2021/01/28 13:47:34;;;;;;;1.27;0.82;;;6.20;99.90;;;;;;4751092;30;20058;-79
2021/01/28 13:50:06;;;;;;;0.80;0.70;;;6.20;99.90;;;;;;4750816;30;20101;-79
2021/01/28 13:52:38;;;;;;;0.88;0.75;;;6.10;99.90;;;;;;4750569;30;20134;-79
2021/01/28 13:55:10;;;;;;;1.10;0.90;;;6.10;99.90;;;;;;4719334;30;20079;-79
2021/01/28 13:57:37;;;;;;;1.08;0.90;;;6.20;99.90;;;;;;4734312;30;20075;-79
2021/01/28 14:00:11;;;;;;;1.00;0.90;;;6.20;99.90;;;;;;4750707;30;20245;-80